SBBUSBKP

Guest
Details From SBBU - BAURU
To SBKP - Sao Paulo Viracopos
Flight Number -
Tags generated
Created
Modified
Stats Distance 114 nm / 211 km
Max Altitude 9,600 ft / 2,926 m
Waypoints 3
Social Downloads 1
Likes 0
Share VATSIM

Download

Looking for another format? Having issues loading an existing format? Contact us
Advertisement - Login to hide

Notes

Basic altitude profile: - Ascent Rate: 500ft/min - Ascent Speed: 120kts - Cruise Altitude: 750000ft - Cruise Speed: 140kts - Descent Rate: 500ft/min - Descent Speed: 150kts Options: - Use NATs: yes - Use PACOTS: yes - Use low airways: yes - Use high airways: yes

Route

SBBU PORTE SBKP

ID Type Via Altitude Latitude Longitude Leg Dist Tot Dist Heading (true) Name
O SBBU APT - 0 ft / 0 m -22.34504˚ -49.05380˚ - 0 nm - BAURU
PORTE FIX - 9,600 ft / 2,926 m -22.44917˚ -48.57917˚ 27 nm 27 nm 103° / 103° -
O SBKP APT - 0 ft / 0 m -23.00738˚ -47.13452˚ 86 nm 113 nm 113° / 112° Sao Paulo Viracopos

Altitude Profile

Advertisement - Login to hide

SBBU

Details ICAO SBBU (BAU)
Name BAURU
Region Brazil
Timezone America/Sao_Paulo (UTC-3.0)
Stats Elevation 2,025 ft / 617 m (AMSL)
Location -22.345040° -49.053801°
Runways 1
Magnetic Variation 20.459° W

METAR

Not found

TAF

TAF SBBU 260415Z 2606/2618 11008KT CAVOK TN17/2608Z TX27/2618Z RMK PCX

Decode

Departure Runways

ID Width Length Bearing (true) Bearing (mag) Surface Threshold Offset Overrun Length
14 115 ft / 35 m 4,925 ft / 1,501 m 122.73° 143.19° Asphalt 657 ft / 200 m 0 ft / 0 m
32 115 ft / 35 m 4,925 ft / 1,501 m 302.73° 323.19° Asphalt 0 ft / 0 m 0 ft / 0 m

SBKP

Details ICAO SBKP (VCP)
Name Sao Paulo Viracopos
Region Brazil
Timezone America/Sao_Paulo (UTC-3.0)
Stats Elevation 2,170 ft / 661 m (AMSL)
Location -23.007383° -47.134522°
Runways 1
Magnetic Variation 21.249° W

METAR

SBKP 260600Z 12011KT CAVOK 16/13 Q1021

Decode

TAF

TAF SBKP 260201Z 2606/2706 12010KT 8000 NSCTN15/2608Z TX25/2618Z BECMG 2610/2612 10008KT BECMG 2613/2615 06002KT CAVOK BECMG 2617/2619 FEW035 BECMG 2619/2621 14007KT BECMG 2621/2623 13012KT RMK PGM

Decode

Destination Runways

ID Width Length Bearing (true) Bearing (mag) Surface Threshold Offset Overrun Length
15 148 ft / 45 m 10,639 ft / 3,243 m 127.91° 149.16° Asphalt 0 ft / 0 m 205 ft / 62 m
33 148 ft / 45 m 10,639 ft / 3,243 m 307.90° 329.15° Asphalt 0 ft / 0 m 205 ft / 62 m

Approach Navaids

Runway Type Ident Frequency Range Bearing (true) Bearing (mag) Slope Elevation
15 Localiser IKP 110.30 MHz 18 nm / 33 km 127.95° 149.20° - 2,170 ft / 661 m (AMSL)
15 Glidescope IKP 110.30 MHz 10 nm / 19 km 127.90° 149.15° 3.00° 2,170 ft / 661 m (AMSL)

Popular Alternatives